createdAt,value
2022-11-28T00:01:25.875Z,101105.61
2022-11-28T00:03:52.989Z,101106.80
2022-11-28T00:06:20.543Z,101098.75
2022-11-28T00:08:48.206Z,101096.20
2022-11-28T00:11:16.328Z,101097.64
2022-11-28T00:13:44.626Z,101097.92
2022-11-28T00:16:21.516Z,101102.10
2022-11-28T00:18:50.800Z,101100.92
2022-11-28T00:21:18.668Z,101103.23
2022-11-28T00:23:47.865Z,101107.11
2022-11-28T00:26:19.294Z,101101.89
2022-11-28T00:28:46.928Z,101099.73
2022-11-28T00:31:16.910Z,101096.41
2022-11-28T00:33:43.958Z,101092.40
2022-11-28T00:36:11.352Z,101096.42
2022-11-28T00:38:38.426Z,101096.05
2022-11-28T00:41:07.853Z,101092.20
2022-11-28T00:43:35.752Z,101094.40
2022-11-28T00:46:03.519Z,101095.88
2022-11-28T00:48:32.435Z,101095.16
2022-11-28T00:51:24.060Z,101095.06
2022-11-28T00:53:52.935Z,101094.65
2022-11-28T00:56:22.997Z,101092.71
2022-11-28T00:58:50.344Z,101095.05
2022-11-28T01:01:21.066Z,101095.64
2022-11-28T01:03:50.005Z,101097.81
2022-11-28T01:06:26.001Z,101092.53
2022-11-28T01:08:53.832Z,101092.30
2022-11-28T01:11:21.596Z,101088.11
2022-11-28T01:13:48.963Z,101084.39
2022-11-28T01:16:16.523Z,101077.46
2022-11-28T01:18:43.652Z,101080.51
2022-11-28T01:21:11.167Z,101076.08
2022-11-28T01:23:38.911Z,101074.40
2022-11-28T01:26:15.882Z,101068.23
2022-11-28T01:28:43.367Z,101064.09
2022-11-28T01:31:13.476Z,101062.23
2022-11-28T01:33:40.432Z,101058.95
2022-11-28T01:36:08.677Z,101057.13
2022-11-28T01:38:35.675Z,101053.34
2022-11-28T01:41:03.712Z,101051.37
2022-11-28T01:43:31.049Z,101050.96
2022-11-28T01:45:58.190Z,101049.27
2022-11-28T01:48:34.040Z,101047.79
2022-11-28T01:51:05.948Z,101044.45
2022-11-28T01:53:35.933Z,101040.05
2022-11-28T01:56:07.761Z,101035.86
2022-11-28T01:58:39.014Z,101034.84
2022-11-28T02:01:06.685Z,101026.16
2022-11-28T02:03:42.868Z,101026.73
2022-11-28T02:06:12.545Z,101021.59
2022-11-28T02:08:39.482Z,101021.73
2022-11-28T02:11:09.484Z,101017.52
2022-11-28T02:14:18.519Z,101015.33
2022-11-28T02:16:54.796Z,101015.37
2022-11-28T02:19:46.025Z,101006.33
2022-11-28T02:22:48.379Z,101001.38
2022-11-28T02:25:35.487Z,100999.38
2022-11-28T02:28:32.120Z,100992.96
2022-11-28T02:31:23.650Z,100991.13
2022-11-28T02:33:54.882Z,100993.59
2022-11-28T02:36:44.535Z,100992.13
2022-11-28T02:39:19.622Z,100986.85
2022-11-28T02:42:27.332Z,100987.46
2022-11-28T02:45:17.499Z,100988.81
2022-11-28T02:47:57.018Z,100985.14
2022-11-28T02:50:34.252Z,100980.73
2022-11-28T02:53:12.607Z,100983.39
2022-11-28T02:55:40.948Z,100979.27
2022-11-28T02:58:10.353Z,100977.23
2022-11-28T03:00:39.499Z,100970.23
2022-11-28T03:03:17.621Z,100963.27
2022-11-28T03:05:56.883Z,100965.11
2022-11-28T03:08:42.140Z,100963.77
2022-11-28T03:11:34.506Z,100967.68
2022-11-28T03:14:14.189Z,100968.29
2022-11-28T03:16:50.259Z,100970.86
2022-11-28T03:19:27.179Z,100964.36
2022-11-28T03:21:54.084Z,100968.48
2022-11-28T03:24:33.555Z,100969.10
2022-11-28T03:27:29.702Z,100969.14
2022-11-28T03:30:06.189Z,100970.22
2022-11-28T03:32:37.365Z,100968.45
2022-11-28T03:35:12.856Z,100972.23
2022-11-28T03:37:45.525Z,100971.84
2022-11-28T03:40:18.051Z,100969.13
2022-11-28T03:42:50.793Z,100972.44
2022-11-28T03:45:21.910Z,100973.84
2022-11-28T03:47:58.209Z,100971.63
2022-11-28T03:50:46.804Z,100971.73
2022-11-28T03:53:24.117Z,100968.17
2022-11-28T03:56:08.996Z,100966.98
2022-11-28T03:59:40.772Z,100968.55
2022-11-28T04:02:36.473Z,100967.15
2022-11-28T04:05:58.472Z,100966.71
2022-11-28T04:08:36.813Z,100960.09
2022-11-28T04:11:30.550Z,100956.65
2022-11-28T04:14:04.236Z,100954.66
2022-11-28T04:16:37.423Z,100953.69
2022-11-28T04:19:33.343Z,100950.60
2022-11-28T04:22:21.148Z,100946.56
2022-11-28T04:24:58.174Z,100943.56
2022-11-28T04:27:35.143Z,100943.53
2022-11-28T04:30:03.971Z,100939.41
2022-11-28T04:32:35.603Z,100937.52
2022-11-28T04:35:10.651Z,100939.94
2022-11-28T04:37:40.619Z,100943.23
2022-11-28T04:40:09.767Z,100943.55
2022-11-28T04:43:01.337Z,100945.52
2022-11-28T04:45:43.835Z,100939.45
2022-11-28T04:48:11.480Z,100941.40
2022-11-28T04:50:53.844Z,100941.30
2022-11-28T04:53:31.098Z,100939.59
2022-11-28T04:56:02.988Z,100935.73
2022-11-28T04:58:44.698Z,100937.83
2022-11-28T05:01:18.536Z,100935.55
2022-11-28T05:03:45.603Z,100937.30
2022-11-28T05:06:32.746Z,100938.84
2022-11-28T05:09:00.104Z,100937.17
2022-11-28T05:11:27.843Z,100934.52
2022-11-28T05:13:55.657Z,100931.77
2022-11-28T05:16:23.071Z,100931.23
2022-11-28T05:18:50.082Z,100931.05
2022-11-28T05:21:16.975Z,100931.33
2022-11-28T05:23:44.977Z,100923.60
2022-11-28T05:26:20.437Z,100919.36
2022-11-28T05:28:50.355Z,100919.26
2022-11-28T05:31:18.299Z,100920.97
2022-11-28T05:33:45.481Z,100923.36
2022-11-28T05:36:14.235Z,100924.38
2022-11-28T05:38:42.334Z,100917.41
2022-11-28T05:41:10.321Z,100924.27
2022-11-28T05:43:37.327Z,100919.70
2022-11-28T05:46:06.185Z,100918.77
2022-11-28T05:48:33.208Z,100917.88
2022-11-28T05:51:00.528Z,100915.24
2022-11-28T05:53:27.529Z,100913.46
2022-11-28T05:55:54.406Z,100915.30
2022-11-28T05:58:21.512Z,100913.62
2022-11-28T06:00:48.720Z,100917.43
2022-11-28T06:03:15.664Z,100916.98
2022-11-28T06:05:44.078Z,100912.23
2022-11-28T06:08:12.159Z,100915.45
2022-11-28T06:10:39.533Z,100920.59
2022-11-28T06:13:08.471Z,100914.41
2022-11-28T06:15:38.215Z,100916.52
2022-11-28T06:18:05.699Z,100919.52
2022-11-28T06:20:35.299Z,100913.69
2022-11-28T06:23:02.280Z,100907.26
2022-11-28T06:25:29.189Z,100907.89
2022-11-28T06:27:56.210Z,100901.95
2022-11-28T06:30:23.161Z,100903.58
2022-11-28T06:32:49.998Z,100904.08
2022-11-28T06:35:16.961Z,100908.56
2022-11-28T06:37:43.944Z,100904.13
2022-11-28T06:40:11.028Z,100906.53
2022-11-28T06:42:37.971Z,100908.80
2022-11-28T06:45:05.803Z,100909.64
2022-11-28T06:47:32.936Z,100904.52
2022-11-28T06:50:00.175Z,100904.40
2022-11-28T06:52:27.386Z,100905.84
2022-11-28T06:54:54.572Z,100906.34
2022-11-28T06:57:21.838Z,100905.45
2022-11-28T06:59:50.101Z,100903.15
2022-11-28T07:02:17.182Z,100901.70
2022-11-28T07:04:44.713Z,100902.15
2022-11-28T07:07:16.318Z,100902.05
2022-11-28T07:09:43.584Z,100901.90
2022-11-28T07:12:10.796Z,100904.55
2022-11-28T07:14:37.822Z,100901.09
2022-11-28T07:17:04.963Z,100898.69
2022-11-28T07:19:31.914Z,100903.11
2022-11-28T07:21:58.860Z,100901.96
2022-11-28T07:24:26.228Z,100899.50
2022-11-28T07:26:53.458Z,100898.02
2022-11-28T07:29:20.561Z,100890.88
2022-11-28T07:31:47.565Z,100893.80
2022-11-28T07:34:14.514Z,100892.42
2022-11-28T07:36:41.886Z,100892.06
2022-11-28T07:39:14.188Z,100890.30
2022-11-28T07:41:41.148Z,100891.16
2022-11-28T07:44:09.744Z,100893.52
2022-11-28T07:46:38.357Z,100893.98
2022-11-28T07:49:05.362Z,100894.13
2022-11-28T07:51:33.307Z,100894.14
2022-11-28T07:54:01.088Z,100893.85
2022-11-28T07:56:50.184Z,100893.36
2022-11-28T07:59:17.807Z,100896.11
2022-11-28T08:01:44.822Z,100895.15
2022-11-28T08:04:11.785Z,100896.55
2022-11-28T08:06:41.830Z,100891.90
2022-11-28T08:09:11.475Z,100893.72
2022-11-28T08:11:38.666Z,100893.08
2022-11-28T08:14:06.154Z,100896.13
2022-11-28T08:16:33.369Z,100896.73
2022-11-28T08:19:01.595Z,100893.37
2022-11-28T08:21:31.875Z,100893.51
2022-11-28T08:24:00.638Z,100890.61
2022-11-28T08:26:31.031Z,100890.83
2022-11-28T08:28:59.470Z,100892.27
2022-11-28T08:31:29.353Z,100893.71
2022-11-28T08:33:58.486Z,100891.25
2022-11-28T08:36:25.421Z,100894.85
2022-11-28T08:39:03.867Z,100893.29
2022-11-28T08:41:39.512Z,100884.33
2022-11-28T08:44:06.593Z,100886.80
2022-11-28T08:46:33.513Z,100883.23
2022-11-28T08:49:03.214Z,100887.20
2022-11-28T08:51:31.591Z,100885.42
2022-11-28T08:53:59.695Z,100890.79
2022-11-28T08:56:28.057Z,100894.20
2022-11-28T08:58:55.081Z,100892.55
2022-11-28T09:01:24.963Z,100893.27
2022-11-28T09:03:52.421Z,100891.71
2022-11-28T09:06:20.569Z,100889.95
2022-11-28T09:08:48.669Z,100891.52
2022-11-28T09:11:18.899Z,100886.62
2022-11-28T09:13:46.541Z,100888.92
2022-11-28T09:16:13.729Z,100882.40
2022-11-28T09:18:40.683Z,100876.75
2022-11-28T09:21:10.276Z,100877.51
2022-11-28T09:23:39.236Z,100875.40
2022-11-28T09:26:18.895Z,100875.54
2022-11-28T09:28:46.705Z,100872.91
2022-11-28T09:31:16.002Z,100869.70
2022-11-28T09:33:43.763Z,100868.71
2022-11-28T09:36:14.492Z,100864.23
2022-11-28T09:38:41.588Z,100858.85
2022-11-28T09:41:30.474Z,100865.19
2022-11-28T09:44:07.067Z,100854.42
2022-11-28T09:46:36.867Z,100850.60
2022-11-28T09:49:18.982Z,100849.34
2022-11-28T09:51:52.445Z,100850.80
2022-11-28T09:54:28.754Z,100840.59
2022-11-28T09:56:58.411Z,100836.96
2022-11-28T09:59:28.373Z,100833.13
2022-11-28T10:02:04.439Z,100831.27
2022-11-28T10:04:57.821Z,100827.88
2022-11-28T10:07:53.715Z,100821.08
2022-11-28T10:10:30.864Z,100812.08
2022-11-28T10:13:47.005Z,100809.27
2022-11-28T10:16:49.173Z,100810.63
2022-11-28T10:19:52.742Z,100804.46
2022-11-28T10:22:15.797Z,100807.20
2022-11-28T10:24:54.668Z,100806.17
2022-11-28T10:27:28.947Z,100806.23
2022-11-28T10:30:01.969Z,100797.89
2022-11-28T10:32:40.038Z,100785.68
2022-11-28T10:35:26.700Z,100787.01
2022-11-28T10:37:55.039Z,100786.13
2022-11-28T10:40:28.653Z,100782.30
2022-11-28T10:43:02.023Z,100778.30
2022-11-28T10:46:05.633Z,100776.46
2022-11-28T10:48:46.091Z,100778.11
2022-11-28T10:51:32.490Z,100780.95
2022-11-28T10:54:08.805Z,100781.04
2022-11-28T10:56:42.061Z,100785.05
2022-11-28T10:59:27.785Z,100779.79
2022-11-28T11:01:56.482Z,100780.98
2022-11-28T11:04:27.136Z,100776.63
2022-11-28T11:07:14.797Z,100772.06
2022-11-28T11:09:45.368Z,100779.77
2022-11-28T11:12:20.850Z,100779.88
2022-11-28T11:14:47.925Z,100782.04
2022-11-28T11:17:36.276Z,100777.09
2022-11-28T11:20:28.730Z,100783.27
2022-11-28T11:23:01.194Z,100782.38
2022-11-28T11:25:32.072Z,100784.27
2022-11-28T11:28:03.146Z,100794.80
2022-11-28T11:30:35.928Z,100793.11
2022-11-28T11:33:05.901Z,100793.48
2022-11-28T11:35:35.441Z,100792.76
2022-11-28T11:38:38.943Z,100791.12
2022-11-28T11:41:29.311Z,100796.59
2022-11-28T11:44:14.248Z,100798.55
2022-11-28T11:47:10.527Z,100803.31
2022-11-28T11:49:41.335Z,100797.25
2022-11-28T11:52:12.360Z,100801.67
2022-11-28T11:54:57.596Z,100799.09
2022-11-28T11:57:33.511Z,100797.15
2022-11-28T12:00:10.681Z,100794.35
2022-11-28T12:02:55.257Z,100794.63
2022-11-28T12:05:46.440Z,100791.83
2022-11-28T12:08:39.684Z,100796.60
2022-11-28T12:11:22.726Z,100792.41
2022-11-28T12:13:51.362Z,100789.55
2022-11-28T12:16:30.644Z,100788.69
2022-11-28T12:19:31.977Z,100782.46
2022-11-28T12:22:06.223Z,100779.57
2022-11-28T12:24:36.593Z,100778.99
2022-11-28T12:27:33.850Z,100770.45
2022-11-28T12:30:14.058Z,100768.73
2022-11-28T12:32:51.211Z,100763.51
2022-11-28T12:36:18.618Z,100760.96
2022-11-28T12:39:10.321Z,100760.98
2022-11-28T12:41:43.069Z,100761.14
2022-11-28T12:44:22.076Z,100756.43
2022-11-28T12:46:48.941Z,100753.75
2022-11-28T12:49:24.364Z,100749.16
2022-11-28T12:52:06.278Z,100744.45
2022-11-28T12:54:58.032Z,100737.46
2022-11-28T12:57:52.893Z,100743.66
2022-11-28T13:00:25.768Z,100744.27
2022-11-28T13:03:18.668Z,100745.05
2022-11-28T13:05:59.033Z,100741.42
2022-11-28T13:08:34.471Z,100740.95
2022-11-28T13:11:38.360Z,100741.40
2022-11-28T13:14:26.844Z,100742.98
2022-11-28T13:16:57.652Z,100738.66
2022-11-28T13:20:11.839Z,100742.55
2022-11-28T13:22:53.706Z,100742.27
2022-11-28T13:26:04.773Z,100739.59
2022-11-28T13:28:35.609Z,100745.50
2022-11-28T13:31:22.824Z,100742.52
2022-11-28T13:33:52.740Z,100738.94
2022-11-28T13:39:22.192Z,100740.42
2022-11-28T13:48:57.327Z,100736.88
2022-11-28T13:51:31.098Z,100733.31
2022-11-28T13:54:16.916Z,100737.28
2022-11-28T13:57:09.022Z,100738.17
2022-11-28T13:59:37.366Z,100737.25
2022-11-28T14:02:22.605Z,100739.48
2022-11-28T14:04:50.137Z,100743.06
2022-11-28T14:07:32.858Z,100743.37
2022-11-28T14:10:11.340Z,100746.08
2022-11-28T14:12:51.209Z,100745.48
2022-11-28T14:15:53.947Z,100745.48
2022-11-28T14:18:55.519Z,100744.27
2022-11-28T14:21:33.156Z,100739.48
2022-11-28T14:24:24.157Z,100741.83
2022-11-28T14:26:59.194Z,100740.91
2022-11-28T14:29:39.917Z,100745.83
2022-11-28T14:32:30.285Z,100738.84
2022-11-28T14:34:58.602Z,100740.17
2022-11-28T14:37:29.470Z,100743.36
2022-11-28T14:39:57.307Z,100741.80
2022-11-28T14:42:59.137Z,100741.23
2022-11-28T14:45:40.375Z,100740.55
2022-11-28T14:48:21.408Z,100742.98
2022-11-28T14:50:55.976Z,100740.45
2022-11-28T14:53:36.020Z,100736.76
2022-11-28T14:56:27.092Z,100740.04
2022-11-28T14:59:01.481Z,100740.10
2022-11-28T15:01:39.222Z,100740.85
2022-11-28T15:04:47.386Z,100746.41
2022-11-28T15:07:35.508Z,100747.58
2022-11-28T15:10:07.710Z,100749.95
2022-11-28T15:12:58.007Z,100749.80
2022-11-28T15:15:25.537Z,100748.86
2022-11-28T15:17:54.148Z,100746.34
2022-11-28T15:20:31.541Z,100747.71
2022-11-28T15:22:58.661Z,100752.46
2022-11-28T15:25:36.843Z,100753.84
2022-11-28T15:28:14.252Z,100749.01
2022-11-28T15:30:49.699Z,100752.53
2022-11-28T15:33:17.223Z,100753.40
2022-11-28T15:35:59.546Z,100749.12
2022-11-28T15:38:29.355Z,100746.58
2022-11-28T15:40:58.131Z,100747.58
2022-11-28T15:43:25.347Z,100750.01
2022-11-28T15:45:59.011Z,100750.03
2022-11-28T15:48:39.881Z,100750.39
2022-11-28T15:51:07.868Z,100747.57
2022-11-28T15:53:42.028Z,100743.72
2022-11-28T15:56:10.389Z,100744.93
2022-11-28T15:58:38.869Z,100743.98
2022-11-28T16:01:17.593Z,100737.80
2022-11-28T16:03:56.129Z,100738.45
2022-11-28T16:06:28.041Z,100734.56
2022-11-28T16:09:04.121Z,100734.11
2022-11-28T16:11:32.588Z,100736.27
2022-11-28T16:14:06.050Z,100730.79
2022-11-28T16:16:36.566Z,100730.88
2022-11-28T16:19:20.056Z,100729.20
2022-11-28T16:22:10.313Z,100733.73
2022-11-28T16:24:59.537Z,100732.01
2022-11-28T16:27:36.914Z,100726.59
2022-11-28T16:30:47.340Z,100725.68
2022-11-28T16:33:52.719Z,100732.73
2022-11-28T16:36:33.362Z,100728.70
2022-11-28T16:39:26.633Z,100731.40
2022-11-28T16:42:15.933Z,100730.92
2022-11-28T16:44:43.133Z,100732.42
2022-11-28T16:47:32.514Z,100731.23
2022-11-28T16:50:18.307Z,100738.23
2022-11-28T16:52:51.151Z,100733.61
2022-11-28T16:55:30.179Z,100730.48
2022-11-28T16:58:08.661Z,100735.63
2022-11-28T17:00:38.533Z,100733.89
2022-11-28T17:03:10.254Z,100730.73
2022-11-28T17:05:39.786Z,100727.55
2022-11-28T17:08:07.884Z,100726.88
2022-11-28T17:10:34.855Z,100726.98
2022-11-28T17:13:01.773Z,100729.02
2022-11-28T17:15:28.655Z,100730.33
2022-11-28T17:17:56.705Z,100725.67
2022-11-28T17:20:23.656Z,100729.38
2022-11-28T17:22:50.793Z,100728.36
2022-11-28T17:25:20.451Z,100730.00
2022-11-28T17:27:47.837Z,100727.04
2022-11-28T17:30:16.508Z,100729.22
2022-11-28T17:32:43.936Z,100734.36
2022-11-28T17:35:21.849Z,100730.41
2022-11-28T17:37:49.026Z,100737.08
2022-11-28T17:40:36.065Z,100736.42
2022-11-28T17:43:04.108Z,100735.31
2022-11-28T17:45:34.497Z,100737.13
2022-11-28T17:48:01.427Z,100742.36
2022-11-28T17:50:28.413Z,100740.38
2022-11-28T17:52:55.375Z,100741.98
2022-11-28T17:55:22.242Z,100741.69
2022-11-28T17:57:49.149Z,100739.33
2022-11-28T18:00:16.485Z,100738.70
2022-11-28T18:02:43.489Z,100738.77
2022-11-28T18:05:10.718Z,100735.77
2022-11-28T18:07:37.779Z,100736.05
2022-11-28T18:10:05.301Z,100734.66
2022-11-28T18:12:33.054Z,100729.59
2022-11-28T18:15:00.452Z,100730.77
2022-11-28T18:17:27.289Z,100735.77
2022-11-28T18:19:57.459Z,100737.39
2022-11-28T18:22:24.869Z,100735.27
2022-11-28T18:24:51.709Z,100738.05
2022-11-28T18:27:18.636Z,100740.15
2022-11-28T18:29:45.992Z,100735.21
2022-11-28T18:32:13.097Z,100740.05
2022-11-28T18:34:40.389Z,100737.31
2022-11-28T18:37:07.839Z,100737.16
2022-11-28T18:39:42.621Z,100737.68
2022-11-28T18:42:15.044Z,100738.89
2022-11-28T18:44:42.272Z,100740.39
2022-11-28T18:47:10.617Z,100734.66
2022-11-28T18:49:37.702Z,100733.79
2022-11-28T18:52:04.758Z,100733.61
2022-11-28T18:54:32.719Z,100738.08
2022-11-28T18:57:00.549Z,100739.40
2022-11-28T18:59:28.249Z,100739.20
2022-11-28T19:01:55.536Z,100743.50
2022-11-28T19:04:23.089Z,100742.15
2022-11-28T19:06:50.040Z,100741.06
2022-11-28T19:09:17.551Z,100738.72
2022-11-28T19:12:04.782Z,100743.80
2022-11-28T19:14:32.066Z,100745.87
2022-11-28T19:16:59.301Z,100748.27
2022-11-28T19:24:12.834Z,100752.15
2022-11-28T19:26:42.685Z,100750.60
2022-11-28T19:29:10.167Z,100749.27
2022-11-28T19:31:44.562Z,100743.73
2022-11-28T19:34:16.889Z,100747.36
2022-11-28T19:37:08.358Z,100748.96
2022-11-28T19:39:35.717Z,100749.90
2022-11-28T19:42:04.236Z,100744.80
2022-11-28T19:44:33.355Z,100745.81
2022-11-28T19:47:03.626Z,100745.83
2022-11-28T19:49:33.512Z,100745.60
2022-11-28T19:52:11.803Z,100747.96
2022-11-28T19:54:40.703Z,100742.73
2022-11-28T19:57:10.775Z,100742.98
2022-11-28T19:59:37.913Z,100740.93
2022-11-28T20:02:05.552Z,100741.52
2022-11-28T20:04:32.608Z,100741.81
2022-11-28T20:06:59.640Z,100740.45
2022-11-28T20:09:27.060Z,100746.20
2022-11-28T20:11:54.308Z,100743.46
2022-11-28T20:14:21.977Z,100742.73
2022-11-28T20:16:56.039Z,100745.89
2022-11-28T20:19:27.315Z,100746.48
2022-11-28T20:21:57.325Z,100742.48
2022-11-28T20:24:24.813Z,100741.98
2022-11-28T20:26:52.356Z,100743.06
2022-11-28T20:29:30.692Z,100742.81
2022-11-28T20:31:58.720Z,100728.30
2022-11-28T20:34:26.449Z,100741.80
2022-11-28T20:36:53.774Z,100739.48
2022-11-28T20:39:21.463Z,100737.10
2022-11-28T20:41:48.587Z,100739.85
2022-11-28T20:44:19.350Z,100740.65
2022-11-28T20:46:47.119Z,100743.27
2022-11-28T20:49:16.884Z,100739.86
2022-11-28T20:51:46.902Z,100741.70
2022-11-28T20:54:14.999Z,100737.90
2022-11-28T20:57:13.272Z,100731.33
2022-11-28T20:59:31.220Z,100736.01
2022-11-28T21:01:58.326Z,100734.71
2022-11-28T21:04:25.705Z,100743.35
2022-11-28T21:06:54.900Z,100735.70
2022-11-28T21:09:22.520Z,100730.35
2022-11-28T21:11:57.439Z,100731.39
2022-11-28T21:14:31.466Z,100723.28
2022-11-28T21:16:59.005Z,100737.78
2022-11-28T21:19:31.603Z,100736.44
2022-11-28T21:21:58.703Z,100732.20
2022-11-28T21:24:28.466Z,100738.16
2022-11-28T21:26:55.563Z,100729.27
2022-11-28T21:29:24.134Z,100738.06
2022-11-28T21:31:56.439Z,100734.35
2022-11-28T21:34:23.594Z,100734.80
2022-11-28T21:36:50.666Z,100733.98
2022-11-28T21:39:20.332Z,100735.48
2022-11-28T21:41:47.702Z,100737.18
2022-11-28T21:44:28.847Z,100736.48
2022-11-28T21:47:35.002Z,100734.02
2022-11-28T21:50:02.576Z,100730.16
2022-11-28T21:52:57.756Z,100729.14
2022-11-28T21:58:51.884Z,100728.75
2022-11-28T22:01:20.673Z,100732.60
2022-11-28T22:03:48.442Z,100732.58
2022-11-28T22:06:22.113Z,100727.72
2022-11-28T22:09:18.646Z,100724.38
2022-11-28T22:12:34.720Z,100727.42
2022-11-28T22:15:01.681Z,100723.95
2022-11-28T22:17:35.119Z,100726.36
2022-11-28T22:20:58.193Z,100728.66
2022-11-28T22:23:25.146Z,100727.25
2022-11-28T22:25:52.225Z,100727.36
2022-11-28T22:28:19.559Z,100723.70
2022-11-28T22:30:46.648Z,100721.39
2022-11-28T22:33:13.694Z,100725.45
2022-11-28T22:35:40.715Z,100722.89
2022-11-28T22:38:08.367Z,100723.52
2022-11-28T22:43:52.202Z,100726.84
2022-11-28T22:46:21.465Z,100725.31
2022-11-28T22:52:03.562Z,100727.80
2022-11-28T22:54:31.359Z,100731.13
2022-11-28T22:56:58.728Z,100724.90
2022-11-28T22:59:33.226Z,100722.33
2022-11-28T23:02:02.368Z,100724.30
2022-11-28T23:04:29.472Z,100723.66
2022-11-28T23:06:56.424Z,100721.53
2022-11-28T23:09:26.513Z,100726.05
2022-11-28T23:11:53.483Z,100721.84
2022-11-28T23:14:20.538Z,100727.70
2022-11-28T23:16:47.617Z,100726.80
2022-11-28T23:19:17.262Z,100723.83
2022-11-28T23:21:47.800Z,100730.32
2022-11-28T23:24:19.993Z,100730.67
2022-11-28T23:26:48.786Z,100727.67
2022-11-28T23:29:16.488Z,100728.48
2022-11-28T23:31:44.196Z,100730.53
2022-11-28T23:34:12.029Z,100727.80
2022-11-28T23:36:43.256Z,100726.96
2022-11-28T23:39:14.361Z,100727.55
2022-11-28T23:41:42.147Z,100732.25
2022-11-28T23:44:11.371Z,100730.54
2022-11-28T23:46:39.221Z,100726.28
2022-11-28T23:49:06.694Z,100731.67
2022-11-28T23:51:33.773Z,100733.40
2022-11-28T23:54:00.963Z,100730.13
2022-11-28T23:56:30.886Z,100732.27
2022-11-28T23:59:00.902Z,100732.04
